Time;durP1;ratioP1;P1;durP2;ratioP2;P2;SDS_P1;SDS_P2;PMS_P1;PMS_P2;Temp;Humidity;BMP_temperature;BMP_pressure;BME280_temperature;BME280_humidity;BME280_pressure;Samples;Min_cycle;Max_cycle;Signal;HPM_P1;HPM_P2
2021/08/25 00:00:20;;;;;;;8.80;4.20;;;;;;;16.17;80.62;101675.53;5078361;28;20020;-78
2021/08/25 00:02:46;;;;;;;20.63;5.07;;;;;;;16.19;80.96;101684.31;5092134;28;20107;-78
2021/08/25 00:05:11;;;;;;;20.40;5.93;;;;;;;16.21;81.08;101695.88;5094972;28;20393;-80
2021/08/25 00:07:37;;;;;;;17.15;4.78;;;;;;;16.19;80.97;101674.13;5085949;28;20073;-79
2021/08/25 00:10:02;;;;;;;14.35;4.55;;;;;;;16.18;81.04;101660.69;5096510;28;20024;-79
2021/08/25 00:12:30;;;;;;;14.80;5.10;;;;;;;16.19;81.18;101667.81;5094554;28;20020;-79
2021/08/25 00:14:55;;;;;;;13.23;5.00;;;;;;;16.19;81.19;101665.06;5093994;28;20371;-79
2021/08/25 00:17:22;;;;;;;15.57;4.45;;;;;;;16.22;81.64;101645.22;5092125;28;20094;-79
2021/08/25 00:19:47;;;;;;;11.45;4.68;;;;;;;16.25;81.67;101630.06;5093458;28;20032;-78
2021/08/25 00:22:13;;;;;;;12.40;4.32;;;;;;;16.22;81.75;101625.97;5094718;28;20097;-78
2021/08/25 00:24:39;;;;;;;14.80;5.53;;;;;;;16.24;81.87;101634.75;5088270;28;20750;-78
2021/08/25 00:27:06;;;;;;;20.67;5.65;;;;;;;16.22;81.89;101639.72;5085783;28;20035;-78
2021/08/25 00:29:33;;;;;;;19.90;6.72;;;;;;;16.24;82.03;101614.69;5090316;28;20012;-78
2021/08/25 00:31:58;;;;;;;12.05;4.88;;;;;;;16.26;82.08;101604.19;5093827;28;20106;-79
2021/08/25 00:34:24;;;;;;;20.50;5.22;;;;;;;16.23;82.14;101578.06;5095661;28;20028;-78
2021/08/25 00:36:49;;;;;;;10.93;4.68;;;;;;;16.24;82.43;101568.72;5092007;28;20024;-78
2021/08/25 00:39:14;;;;;;;18.35;5.22;;;;;;;16.24;82.31;101548.66;5095255;28;20100;-78
2021/08/25 00:41:40;;;;;;;15.77;5.03;;;;;;;16.22;82.58;101572.88;5092802;28;20435;-79
2021/08/25 00:44:05;;;;;;;16.52;4.60;;;;;;;16.22;82.67;101565.44;5094343;28;20028;-79
2021/08/25 00:46:32;;;;;;;16.52;5.35;;;;;;;16.26;82.96;101566.50;5094402;28;20397;-78
2021/08/25 00:48:57;;;;;;;23.02;6.03;;;;;;;16.25;82.88;101564.84;5094029;28;20103;-78
2021/08/25 00:51:24;;;;;;;11.80;5.32;;;;;;;16.25;82.76;101559.34;5076124;28;20024;-78
2021/08/25 00:53:50;;;;;;;19.73;4.88;;;;;;;16.27;82.86;101564.56;5092751;28;20024;-79
2021/08/25 00:56:16;;;;;;;15.60;4.90;;;;;;;16.30;83.08;101555.72;5093082;28;20028;-80
2021/08/25 00:58:41;;;;;;;18.42;5.18;;;;;;;16.31;83.00;101566.41;5094795;28;20424;-79
2021/08/25 01:01:13;;;;;;;16.25;5.22;;;;;;;16.34;83.23;101563.09;5092349;28;20042;-78
2021/08/25 01:03:43;;;;;;;21.30;5.67;;;;;;;16.35;83.01;101547.41;5088098;28;20039;-79
2021/08/25 01:06:08;;;;;;;20.58;5.90;;;;;;;16.35;83.27;101548.22;5095421;28;20035;-79
2021/08/25 01:08:34;;;;;;;15.32;5.45;;;;;;;16.37;83.34;101557.00;5093276;28;20020;-79
2021/08/25 01:11:11;;;;;;;21.23;5.45;;;;;;;16.40;83.34;101552.84;5076740;28;20393;-79
2021/08/25 01:13:37;;;;;;;20.23;6.60;;;;;;;16.42;83.26;101543.19;5089779;28;20036;-77
2021/08/25 01:16:02;;;;;;;19.50;4.93;;;;;;;16.48;83.43;101546.69;5091081;28;20039;-78
2021/08/25 01:18:27;;;;;;;19.58;5.63;;;;;;;16.50;83.56;101536.19;5092944;28;20027;-78
2021/08/25 01:20:53;;;;;;;19.20;4.68;;;;;;;16.50;83.48;101508.66;5075505;28;20046;-78
2021/08/25 01:23:21;;;;;;;18.30;5.18;;;;;;;16.50;83.80;101494.06;5092106;28;20065;-78
2021/08/25 01:25:50;;;;;;;24.55;5.78;;;;;;;16.53;83.92;101498.97;5082721;28;20120;-78
2021/08/25 01:28:17;;;;;;;20.70;5.70;;;;;;;16.56;83.68;101499.22;5073501;28;20027;-78
2021/08/25 01:30:43;;;;;;;17.55;5.35;;;;;;;16.58;84.03;101474.94;5084204;28;20036;-78
2021/08/25 01:33:26;;;;;;;22.95;5.20;;;;;;;16.59;83.85;101467.53;5074351;28;20028;-78
2021/08/25 01:35:51;;;;;;;26.27;4.80;;;;;;;16.59;83.92;101465.59;5086026;28;20027;-79
2021/08/25 01:38:27;;;;;;;23.65;4.82;;;;;;;16.60;83.94;101455.41;5085013;28;20079;-79
2021/08/25 01:40:52;;;;;;;18.65;5.18;;;;;;;16.62;83.98;101447.66;5093124;28;20473;-78
2021/08/25 01:43:17;;;;;;;18.83;5.07;;;;;;;16.61;83.77;101440.50;5093090;28;20035;-78
2021/08/25 01:45:43;;;;;;;26.17;4.88;;;;;;;16.62;84.13;101431.16;5092056;28;20028;-78
2021/08/25 01:48:08;;;;;;;25.02;4.90;;;;;;;16.63;84.06;101433.59;5091570;28;20024;-78
2021/08/25 01:50:34;;;;;;;26.80;5.70;;;;;;;16.63;84.20;101432.78;5092849;28;20023;-78
2021/08/25 01:52:59;;;;;;;23.88;5.18;;;;;;;16.66;84.31;101426.66;5092534;28;20054;-78
2021/08/25 01:55:24;;;;;;;26.63;5.40;;;;;;;16.65;84.42;101405.78;5093874;28;20024;-78
2021/08/25 01:57:50;;;;;;;27.60;5.65;;;;;;;16.67;84.18;101406.31;5092234;28;20023;-79
2021/08/25 02:00:15;;;;;;;22.27;6.22;;;;;;;16.69;84.47;101392.22;5093996;28;20031;-78
2021/08/25 02:02:41;;;;;;;23.05;4.80;;;;;;;16.70;84.54;101388.38;5093170;28;20035;-78
2021/08/25 02:05:07;;;;;;;22.60;5.65;;;;;;;16.69;84.54;101365.50;5091884;28;20039;-78
2021/08/25 02:07:32;;;;;;;28.50;5.80;;;;;;;16.69;84.49;101362.75;5092540;28;20477;-78
2021/08/25 02:09:57;;;;;;;27.45;6.40;;;;;;;16.70;84.84;101361.63;5092396;28;20032;-78
2021/08/25 02:12:23;;;;;;;24.67;6.18;;;;;;;16.72;84.75;101340.09;5092582;28;20465;-78
2021/08/25 02:14:48;;;;;;;25.42;6.22;;;;;;;16.74;84.88;101332.38;5085799;28;20029;-78
2021/08/25 02:17:14;;;;;;;24.92;5.35;;;;;;;16.75;84.82;101336.78;5060389;28;20037;-78
2021/08/25 02:19:39;;;;;;;28.23;6.25;;;;;;;16.77;84.78;101340.06;5090136;28;20032;-78
2021/08/25 02:22:04;;;;;;;31.25;6.55;;;;;;;16.79;84.87;101337.81;5088387;28;20024;-78
2021/08/25 02:24:31;;;;;;;29.33;6.82;;;;;;;16.80;84.85;101333.13;5093400;28;20472;-78
2021/08/25 02:26:57;;;;;;;30.65;6.60;;;;;;;16.81;84.90;101329.28;5092474;28;20028;-79
2021/08/25 02:29:22;;;;;;;29.80;6.57;;;;;;;16.82;85.07;101306.91;5094000;28;20497;-79
2021/08/25 02:31:47;;;;;;;26.58;7.07;;;;;;;16.84;85.01;101310.19;5091907;28;20032;-79
2021/08/25 02:34:14;;;;;;;24.27;6.18;;;;;;;16.85;85.05;101298.06;5091314;28;20032;-79
2021/08/25 02:36:39;;;;;;;32.33;6.47;;;;;;;16.86;85.05;101285.94;5093711;28;20085;-79
2021/08/25 02:39:04;;;;;;;29.60;6.70;;;;;;;16.87;84.99;101289.50;5091791;28;20040;-78
2021/08/25 02:41:30;;;;;;;26.40;7.18;;;;;;;16.89;84.90;101283.66;5093226;28;20031;-78
2021/08/25 02:43:56;;;;;;;20.77;5.63;;;;;;;16.91;85.04;101273.16;5072363;28;20466;-78
2021/08/25 02:46:22;;;;;;;25.95;6.72;;;;;;;16.92;85.01;101266.56;5093644;28;20478;-79
2021/08/25 02:48:48;;;;;;;36.17;6.90;;;;;;;16.93;84.97;101269.00;5091049;28;20038;-79
2021/08/25 02:51:14;;;;;;;31.10;5.57;;;;;;;16.95;85.03;101271.44;5090176;28;20485;-79
2021/08/25 02:53:39;;;;;;;30.05;7.55;;;;;;;16.98;85.04;101268.91;5091968;28;20035;-79
2021/08/25 02:56:04;;;;;;;26.42;6.68;;;;;;;16.99;85.01;101259.50;5092307;28;20386;-78
2021/08/25 02:58:30;;;;;;;25.45;6.45;;;;;;;17.01;85.05;101254.50;5092567;28;20138;-78
2021/08/25 03:00:55;;;;;;;29.25;6.13;;;;;;;17.04;85.11;101247.56;5085855;28;20028;-78
2021/08/25 03:03:21;;;;;;;25.55;6.57;;;;;;;17.06;85.06;101231.56;5091237;28;20077;-79
2021/08/25 03:05:46;;;;;;;24.40;6.30;;;;;;;17.08;84.99;101235.66;5075099;28;20047;-78
2021/08/25 03:08:12;;;;;;;21.20;7.15;;;;;;;17.11;85.11;101239.72;5091334;28;20028;-77
2021/08/25 03:10:37;;;;;;;20.27;6.85;;;;;;;17.14;85.03;101241.06;5075217;28;20031;-78
2021/08/25 03:13:02;;;;;;;22.25;6.32;;;;;;;17.18;84.83;101234.59;5092817;28;20032;-78
2021/08/25 03:15:28;;;;;;;25.45;6.43;;;;;;;17.21;84.96;101228.47;5091767;28;20020;-78
2021/08/25 03:17:53;;;;;;;24.00;7.70;;;;;;;17.23;84.86;101215.22;5091531;28;20036;-79
2021/08/25 03:20:19;;;;;;;24.70;6.90;;;;;;;17.27;84.73;101212.69;5093031;28;20032;-78
2021/08/25 03:22:44;;;;;;;30.73;7.20;;;;;;;17.28;84.59;101209.59;5091888;28;20040;-79
2021/08/25 03:25:10;;;;;;;20.63;6.88;;;;;;;17.31;84.79;101195.19;5091934;28;20024;-79
2021/08/25 03:27:35;;;;;;;24.63;7.53;;;;;;;17.33;84.68;101186.63;5094517;28;20028;-79
2021/08/25 03:30:01;;;;;;;24.20;6.90;;;;;;;17.36;84.58;101174.97;5096646;28;20020;-78
2021/08/25 03:32:26;;;;;;;20.92;6.03;;;;;;;17.39;84.57;101170.78;5091699;28;20046;-79
2021/08/25 03:34:52;;;;;;;19.67;6.95;;;;;;;17.40;84.37;101164.13;5092872;28;20023;-78
2021/08/25 03:37:17;;;;;;;22.85;7.35;;;;;;;17.39;84.45;101168.03;5094291;28;20481;-78
2021/08/25 03:39:43;;;;;;;21.40;7.70;;;;;;;17.40;84.13;101147.59;5091980;28;20055;-78
2021/08/25 03:42:09;;;;;;;24.05;6.13;;;;;;;17.39;84.28;101141.28;5094919;28;20028;-78
2021/08/25 03:44:37;;;;;;;28.27;6.72;;;;;;;17.39;84.35;101154.25;5084930;28;20044;-78
2021/08/25 03:47:04;;;;;;;24.80;7.97;;;;;;;17.38;84.34;101125.03;5089658;28;20658;-78
2021/08/25 03:49:31;;;;;;;24.08;7.75;;;;;;;17.37;84.35;101139.97;5090944;28;20051;-78
2021/08/25 03:51:56;;;;;;;25.73;7.20;;;;;;;17.35;84.60;101131.19;5083259;28;20108;-77
2021/08/25 03:54:22;;;;;;;18.65;6.82;;;;;;;17.36;84.34;101157.63;5086291;28;20461;-78
2021/08/25 03:56:47;;;;;;;24.88;8.30;;;;;;;17.34;84.57;101148.84;5084928;28;20032;-78
2021/08/25 03:59:13;;;;;;;18.55;6.72;;;;;;;17.34;84.64;101132.31;5082796;28;20032;-78
2021/08/25 04:01:38;;;;;;;17.30;7.43;;;;;;;17.33;84.72;101131.50;5091860;28;20028;-78
2021/08/25 04:04:06;;;;;;;21.35;6.80;;;;;;;17.32;84.63;101143.63;5084973;28;20031;-78
2021/08/25 04:06:32;;;;;;;23.08;8.00;;;;;;;17.34;84.88;101126.81;5095278;28;20189;-78
2021/08/25 04:08:57;;;;;;;25.75;9.05;;;;;;;17.32;84.98;101129.84;5082810;28;20211;-78
2021/08/25 04:11:23;;;;;;;28.27;9.55;;;;;;;17.31;84.83;101118.03;5096189;28;20183;-77
2021/08/25 04:13:49;;;;;;;24.35;7.65;;;;;;;17.31;84.93;101118.03;5094950;28;20384;-77
2021/08/25 04:16:14;;;;;;;26.40;8.95;;;;;;;17.33;84.99;101116.91;5090748;28;20027;-78
2021/08/25 04:18:40;;;;;;;26.02;8.52;;;;;;;17.36;84.93;101116.28;5087751;28;20040;-78
2021/08/25 04:21:05;;;;;;;20.10;6.90;;;;;;;17.37;84.98;101109.66;5094625;28;20081;-78
2021/08/25 04:23:30;;;;;;;24.60;8.13;;;;;;;17.40;84.78;101103.50;5091796;28;20077;-78
2021/08/25 04:25:56;;;;;;;29.05;9.07;;;;;;;17.43;84.96;101113.91;5094372;28;20048;-78
2021/08/25 04:28:21;;;;;;;26.40;9.70;;;;;;;17.45;84.80;101098.69;5091979;28;20035;-78
2021/08/25 04:30:47;;;;;;;23.90;8.27;;;;;;;17.47;84.90;101095.63;5077609;28;20031;-78
2021/08/25 04:33:12;;;;;;;28.50;9.13;;;;;;;17.49;84.80;101085.91;5093619;28;20027;-78
2021/08/25 04:35:37;;;;;;;31.55;9.57;;;;;;;17.51;84.74;101072.66;5095662;28;20028;-77
2021/08/25 04:38:03;;;;;;;25.80;9.30;;;;;;;17.53;84.69;101069.56;5093813;28;20055;-77
2021/08/25 04:40:28;;;;;;;21.88;8.05;;;;;;;17.57;84.80;101081.59;5093325;28;20081;-78
2021/08/25 04:42:54;;;;;;;25.48;7.60;;;;;;;17.58;84.39;101061.16;5093344;28;20040;-78
2021/08/25 04:45:19;;;;;;;23.23;8.05;;;;;;;17.60;84.75;101045.13;5094358;28;20020;-79
2021/08/25 04:47:45;;;;;;;25.38;8.70;;;;;;;17.63;84.68;101052.75;5092323;28;20040;-78
2021/08/25 04:50:10;;;;;;;31.25;9.15;;;;;;;17.68;84.56;101069.19;5093624;28;20028;-78
2021/08/25 04:52:35;;;;;;;24.77;7.88;;;;;;;17.72;84.51;101061.91;5094577;28;20529;-78
2021/08/25 04:55:01;;;;;;;27.77;9.05;;;;;;;17.75;84.20;101055.75;5095355;28;20076;-78
2021/08/25 04:57:26;;;;;;;24.73;8.80;;;;;;;17.79;84.00;101038.59;5095074;28;20024;-78
2021/08/25 04:59:52;;;;;;;19.83;7.70;;;;;;;17.79;83.81;101055.97;5092207;28;20027;-78
2021/08/25 05:02:17;;;;;;;21.52;7.68;;;;;;;17.82;83.90;101060.03;5095093;28;20028;-78
2021/08/25 05:04:42;;;;;;;30.08;9.20;;;;;;;17.85;84.05;101064.94;5092613;28;20035;-78
2021/08/25 05:07:08;;;;;;;26.33;8.70;;;;;;;17.88;83.77;101064.28;5083933;28;20436;-78
2021/08/25 05:09:33;;;;;;;24.55;8.38;;;;;;;17.89;83.79;101066.72;5093947;28;20028;-78
2021/08/25 05:11:59;;;;;;;23.17;8.20;;;;;;;17.91;83.93;101042.41;5093648;28;20195;-78
2021/08/25 05:14:24;;;;;;;25.02;8.75;;;;;;;17.92;83.80;101057.84;5092080;28;21026;-78
2021/08/25 05:16:49;;;;;;;22.17;9.13;;;;;;;17.93;83.60;101044.84;5093303;28;20346;-78
2021/08/25 05:19:15;;;;;;;22.70;8.52;;;;;;;17.94;83.67;101030.72;5093485;28;20070;-78
2021/08/25 05:21:40;;;;;;;23.98;8.38;;;;;;;17.99;83.33;101040.00;5094734;28;20024;-78
2021/08/25 05:24:06;;;;;;;23.77;8.25;;;;;;;18.02;83.35;101033.84;5093984;28;20031;-78
2021/08/25 05:26:31;;;;;;;19.00;8.32;;;;;;;18.05;83.38;101033.22;5094539;28;20020;-79
2021/08/25 05:28:56;;;;;;;23.42;7.63;;;;;;;18.10;83.16;101036.63;5091909;28;20050;-78
2021/08/25 05:31:25;;;;;;;23.65;8.02;;;;;;;18.14;82.95;101018.31;5092900;28;20488;-79
2021/08/25 05:33:51;;;;;;;24.20;9.35;;;;;;;18.21;83.20;101012.34;5092659;28;20024;-78
2021/08/25 05:36:16;;;;;;;25.58;9.80;;;;;;;18.27;82.80;101015.75;5075937;28;20437;-79
2021/08/25 05:38:42;;;;;;;26.25;9.85;;;;;;;18.27;82.63;100988.16;5093471;28;20152;-79
2021/08/25 05:41:07;;;;;;;26.05;10.23;;;;;;;18.28;82.79;100996.13;5093430;28;20032;-79
2021/08/25 05:43:33;;;;;;;28.60;8.93;;;;;;;18.26;82.75;100998.38;5090171;28;20031;-79
2021/08/25 05:45:58;;;;;;;26.77;9.02;;;;;;;18.27;82.39;100993.69;5093950;28;20028;-79
2021/08/25 05:48:24;;;;;;;30.00;9.80;;;;;;;18.33;82.78;101003.44;5088562;28;20034;-78
2021/08/25 05:50:49;;;;;;;24.33;9.77;;;;;;;18.36;82.61;100997.25;5094668;28;20389;-78
2021/08/25 05:53:15;;;;;;;27.15;9.93;;;;;;;18.40;82.34;100976.19;5093153;28;20028;-78
2021/08/25 05:55:40;;;;;;;23.38;8.82;;;;;;;18.44;82.08;100977.13;5093063;28;20043;-79
2021/08/25 05:58:06;;;;;;;26.85;9.73;;;;;;;18.49;81.91;100978.94;5083735;28;20029;-79
2021/08/25 06:00:31;;;;;;;29.85;8.75;;;;;;;18.53;81.71;100971.66;5081491;28;20381;-79
2021/08/25 06:02:57;;;;;;;25.33;8.82;;;;;;;18.59;81.47;100951.03;5084699;28;20042;-79
2021/08/25 06:05:22;;;;;;;21.75;8.18;;;;;;;18.63;80.69;100944.53;5090414;28;20027;-79
2021/08/25 06:07:48;;;;;;;22.23;7.45;;;;;;;18.67;80.23;100941.13;5078998;28;20029;-79
2021/08/25 06:10:14;;;;;;;27.23;7.82;;;;;;;18.72;79.89;100940.97;5090365;28;20028;-79
2021/08/25 06:12:40;;;;;;;23.30;7.75;;;;;;;18.78;79.68;100936.94;5092354;28;20078;-77
2021/08/25 06:15:06;;;;;;;21.90;7.32;;;;;;;18.83;79.60;100939.53;5090062;28;20388;-78
2021/08/25 06:17:31;;;;;;;27.70;8.30;;;;;;;18.83;79.12;100928.47;5092223;28;20076;-78
2021/08/25 06:19:57;;;;;;;24.23;7.57;;;;;;;18.84;78.69;100941.94;5089584;28;20032;-77
2021/08/25 06:22:22;;;;;;;20.55;7.63;;;;;;;18.88;78.68;100944.06;5090604;28;20401;-77
2021/08/25 06:24:47;;;;;;;21.17;7.35;;;;;;;18.89;78.54;100938.22;5092140;28;20089;-77
2021/08/25 06:27:13;;;;;;;24.52;8.45;;;;;;;18.91;78.15;100924.91;5089158;28;20101;-77
2021/08/25 06:29:38;;;;;;;19.90;7.30;;;;;;;18.95;78.20;100945.19;5081920;28;20424;-77
2021/08/25 06:32:04;;;;;;;17.00;6.25;;;;;;;18.98;77.46;100919.66;5091517;28;20473;-77
2021/08/25 06:34:30;;;;;;;19.10;6.78;;;;;;;19.04;77.22;100936.88;5092001;28;20115;-78
2021/08/25 06:36:55;;;;;;;16.38;6.20;;;;;;;19.08;76.42;100924.84;5090448;28;20035;-79
2021/08/25 06:39:21;;;;;;;22.17;6.90;;;;;;;19.09;76.10;100922.91;5090405;28;20400;-81
2021/08/25 06:41:47;;;;;;;18.35;6.07;;;;;;;19.06;76.08;100905.03;5089338;28;20065;-79
2021/08/25 06:44:12;;;;;;;17.80;6.30;;;;;;;19.07;76.15;100908.63;5085694;28;20024;-78
2021/08/25 06:46:38;;;;;;;18.38;6.13;;;;;;;19.11;75.97;100911.53;5086644;28;20373;-78
2021/08/25 06:49:03;;;;;;;23.48;6.30;;;;;;;19.15;75.59;100902.28;5078761;28;20032;-78
2021/08/25 06:51:29;;;;;;;20.15;5.63;;;;;;;19.20;75.23;100887.44;5080187;28;20032;-78
2021/08/25 06:53:54;;;;;;;21.17;6.38;;;;;;;19.22;75.07;100899.78;5089971;28;20028;-79
2021/08/25 06:56:21;;;;;;;20.95;6.70;;;;;;;19.23;75.17;100895.06;5086959;28;20508;-79
2021/08/25 06:58:46;;;;;;;18.50;6.43;;;;;;;19.24;74.88;100888.41;5071004;28;20036;-78
2021/08/25 07:01:11;;;;;;;18.55;7.03;;;;;;;19.23;75.19;100893.13;5093977;28;20028;-79
2021/08/25 07:03:37;;;;;;;18.70;6.63;;;;;;;19.21;75.09;100889.09;5091743;28;20031;-78
2021/08/25 07:06:02;;;;;;;18.80;5.78;;;;;;;19.12;74.77;100891.03;5087882;28;20046;-79
2021/08/25 07:08:28;;;;;;;20.63;6.15;;;;;;;19.03;75.38;100869.75;5089260;28;20024;-78
2021/08/25 07:10:53;;;;;;;22.63;5.72;;;;;;;18.98;75.51;100885.72;5093291;28;20038;-78
2021/08/25 07:13:19;;;;;;;21.17;6.28;;;;;;;18.91;76.07;100883.47;5088430;28;20089;-79
2021/08/25 07:15:45;;;;;;;21.63;6.43;;;;;;;18.85;76.24;100895.78;5093204;28;20032;-78
2021/08/25 07:18:11;;;;;;;18.33;7.13;;;;;;;18.79;76.75;100875.00;5089682;28;20032;-78
2021/08/25 07:20:36;;;;;;;13.02;5.45;;;;;;;18.80;76.60;100873.88;5090277;28;20035;-78
2021/08/25 07:23:01;;;;;;;18.15;5.72;;;;;;;18.82;76.79;100866.91;5090206;28;20831;-78
2021/08/25 07:25:27;;;;;;;16.73;5.40;;;;;;;18.84;76.44;100870.13;5086452;28;20465;-78
2021/08/25 07:27:52;;;;;;;18.92;6.30;;;;;;;18.81;76.53;100897.59;5088961;28;20473;-78
2021/08/25 07:30:18;;;;;;;13.52;5.55;;;;;;;18.77;76.36;100877.28;5088175;28;20020;-78
2021/08/25 07:32:43;;;;;;;13.88;5.10;;;;;;;18.76;76.49;100879.25;5088864;28;20358;-78
2021/08/25 07:35:10;;;;;;;17.00;6.20;;;;;;;18.79;76.32;100873.06;5072445;28;21817;-77
2021/08/25 07:37:35;;;;;;;16.63;5.13;;;;;;;18.78;76.70;100865.91;5089069;28;20025;-78
2021/08/25 07:40:01;;;;;;;17.40;6.03;;;;;;;18.75;76.71;100899.72;5089707;28;20054;-78
2021/08/25 07:42:27;;;;;;;17.98;6.80;;;;;;;18.80;76.73;100879.41;5087988;28;20065;-78
2021/08/25 07:44:52;;;;;;;17.63;5.30;;;;;;;18.87;76.86;100896.28;5082889;28;20393;-77
2021/08/25 07:47:17;;;;;;;20.95;4.88;;;;;;;18.97;76.62;100873.84;5074644;28;20032;-78
2021/08/25 07:49:43;;;;;;;14.43;5.38;;;;;;;19.08;76.67;100875.13;5090110;28;20020;-77
2021/08/25 07:52:08;;;;;;;15.25;4.43;;;;;;;19.10;76.09;100871.19;5093469;28;20085;-82
2021/08/25 07:54:34;;;;;;;20.30;5.18;;;;;;;19.07;76.59;100875.47;5093679;28;20088;-77
2021/08/25 07:56:59;;;;;;;19.88;4.82;;;;;;;19.03;76.54;100872.53;5087288;28;20028;-77
2021/08/25 07:59:25;;;;;;;18.25;5.38;;;;;;;19.02;76.42;100876.44;5096027;28;20028;-77
2021/08/25 08:01:50;;;;;;;17.05;4.82;;;;;;;19.04;77.06;100885.22;5081834;28;20535;-77
2021/08/25 08:04:15;;;;;;;19.05;5.80;;;;;;;19.11;76.52;100867.31;5094021;28;20427;-77
2021/08/25 08:06:42;;;;;;;19.55;6.53;;;;;;;19.22;76.77;100869.38;5095369;28;20085;-78
2021/08/25 08:09:07;;;;;;;14.18;4.45;;;;;;;19.26;76.53;100848.25;5090479;28;20024;-77
2021/08/25 08:11:33;;;;;;;16.40;5.10;;;;;;;19.27;76.38;100860.13;5092843;28;20032;-77
2021/08/25 08:13:58;;;;;;;21.27;4.53;;;;;;;19.27;76.59;100854.59;5091956;28;20028;-78
2021/08/25 08:16:24;;;;;;;16.45;4.72;;;;;;;19.26;76.32;100844.66;5085514;28;20039;-78
2021/08/25 08:19:02;;;;;;;18.23;4.40;;;;;;;19.17;76.12;100828.09;5090679;28;20024;-78
2021/08/25 08:21:28;;;;;;;18.23;5.20;;;;;;;19.07;76.40;100840.34;5087600;28;20113;-78
2021/08/25 08:23:54;;;;;;;19.55;4.55;;;;;;;19.15;76.56;100835.09;5092487;28;20517;-77
2021/08/25 08:26:19;;;;;;;15.80;4.45;;;;;;;19.23;76.35;100853.59;5089150;28;20103;-77
2021/08/25 08:28:46;;;;;;;18.27;3.95;;;;;;;19.29;76.25;100846.78;5084643;28;20027;-77
2021/08/25 08:31:12;;;;;;;11.70;4.57;;;;;;;19.36;76.09;100837.97;5082571;28;20409;-77
2021/08/25 08:33:39;;;;;;;14.77;4.40;;;;;;;19.43;75.60;100818.91;5094062;28;20038;-78
2021/08/25 08:36:04;;;;;;;19.00;4.50;;;;;;;19.47;75.35;100820.66;5082626;28;20029;-78
2021/08/25 08:38:30;;;;;;;23.05;5.40;;;;;;;19.56;75.50;100833.63;5075900;28;20140;-79
2021/08/25 08:40:55;;;;;;;21.38;4.57;;;;;;;19.63;75.40;100822.84;5092236;28;20028;-77
2021/08/25 08:43:20;;;;;;;17.45;4.53;;;;;;;19.65;74.87;100821.38;5092401;28;20180;-79
2021/08/25 08:45:46;;;;;;;17.67;4.68;;;;;;;19.70;75.02;100817.66;5091955;28;20477;-79
2021/08/25 08:48:12;;;;;;;13.50;3.92;;;;;;;19.74;74.56;100813.06;5081404;28;20025;-77
2021/08/25 08:50:39;;;;;;;18.00;4.50;;;;;;;19.75;74.59;100809.13;5085342;28;20027;-79
2021/08/25 08:53:06;;;;;;;15.70;4.18;;;;;;;19.78;74.54;100818.72;5086442;28;20028;-81
2021/08/25 08:55:32;;;;;;;16.13;3.83;;;;;;;19.80;74.50;100825.53;5091183;28;20081;-79
2021/08/25 08:57:57;;;;;;;20.65;5.07;;;;;;;19.86;74.57;100817.84;5093676;28;20024;-78
2021/08/25 09:00:22;;;;;;;18.65;4.55;;;;;;;19.86;74.30;100804.00;5092484;28;20027;-78
2021/08/25 09:02:48;;;;;;;19.40;4.82;;;;;;;19.84;74.40;100798.84;5091666;28;20023;-78
2021/08/25 09:05:34;;;;;;;14.27;4.18;;;;;;;19.87;74.34;100795.38;5092972;28;20055;-79
2021/08/25 09:08:04;;;;;;;11.13;4.05;;;;;;;19.88;73.80;100797.00;5093520;28;20393;-78
2021/08/25 09:10:34;;;;;;;13.55;4.43;;;;;;;19.88;74.22;100790.66;5092037;28;20026;-79
2021/08/25 09:13:04;;;;;;;15.93;4.30;;;;;;;19.90;73.90;100791.94;5092974;28;20032;-78
2021/08/25 09:15:33;;;;;;;12.05;3.83;;;;;;;19.94;73.61;100806.75;5089327;28;20028;-79
2021/08/25 09:18:03;;;;;;;14.25;3.85;;;;;;;19.95;73.44;100791.75;5082804;28;20040;-78
2021/08/25 09:20:30;;;;;;;17.48;4.35;;;;;;;20.00;73.30;100789.91;5087002;28;20024;-79
2021/08/25 09:23:11;;;;;;;12.32;3.17;;;;;;;20.05;73.11;100781.41;5083158;28;20024;-79
2021/08/25 09:25:37;;;;;;;9.40;3.65;;;;;;;20.13;72.32;100781.38;5092537;28;20084;-78
2021/08/25 09:28:03;;;;;;;12.20;2.83;;;;;;;20.19;72.19;100784.75;5091746;28;20119;-77
2021/08/25 09:30:51;;;;;;;8.85;3.40;;;;;;;20.24;71.84;100773.44;5085898;28;20048;-77
2021/08/25 09:33:17;;;;;;;11.10;3.25;;;;;;;20.26;71.58;100760.06;5087792;28;20028;-77
2021/08/25 09:35:43;;;;;;;11.73;2.60;;;;;;;20.31;71.11;100762.63;5083356;28;20078;-77
2021/08/25 09:38:19;;;;;;;11.80;4.18;;;;;;;20.35;71.13;100755.28;5090542;28;20056;-77
2021/08/25 09:40:46;;;;;;;14.43;3.15;;;;;;;20.40;70.66;100762.53;5069773;28;20028;-77
2021/08/25 09:43:11;;;;;;;8.57;2.60;;;;;;;20.47;70.68;100762.00;5090806;28;20039;-77
2021/08/25 09:45:37;;;;;;;12.45;2.45;;;;;;;20.51;70.05;100751.84;5091037;28;20024;-79
2021/08/25 09:48:02;;;;;;;8.50;2.45;;;;;;;20.47;68.93;100748.94;5093707;28;20028;-78
2021/08/25 09:50:28;;;;;;;8.75;3.03;;;;;;;20.52;68.85;100747.94;5094066;28;20134;-78
2021/08/25 09:52:53;;;;;;;12.35;3.13;;;;;;;20.57;68.99;100744.94;5093000;28;20024;-79
2021/08/25 09:55:32;;;;;;;8.45;2.53;;;;;;;20.63;68.75;100738.06;5092155;28;20020;-79
2021/08/25 09:57:58;;;;;;;12.32;3.13;;;;;;;20.67;68.01;100744.53;5088318;28;20464;-82
2021/08/25 10:00:24;;;;;;;12.93;3.50;;;;;;;20.71;68.15;100730.81;5092959;28;20040;-77
2021/08/25 10:02:50;;;;;;;9.38;2.97;;;;;;;20.76;68.01;100717.53;5086364;28;20059;-82
2021/08/25 10:05:15;;;;;;;11.45;3.08;;;;;;;20.81;68.07;100722.03;5091150;28;20032;-81
2021/08/25 10:07:40;;;;;;;13.23;3.15;;;;;;;20.88;67.92;100716.72;5067953;28;20039;-80
2021/08/25 10:10:06;;;;;;;9.15;2.60;;;;;;;20.97;67.84;100720.19;5086342;28;20457;-79
2021/08/25 10:12:32;;;;;;;9.63;3.33;;;;;;;20.98;67.33;100709.91;5084466;28;20545;-80
2021/08/25 10:14:57;;;;;;;12.10;3.17;;;;;;;21.00;67.39;100710.38;5069021;28;20454;-80
2021/08/25 10:17:41;;;;;;;9.95;2.85;;;;;;;21.05;67.12;100693.53;5085993;28;20024;-80
2021/08/25 10:20:26;;;;;;;9.48;2.67;;;;;;;21.10;66.88;100704.38;5084979;28;20485;-82
2021/08/25 10:22:54;;;;;;;11.93;2.92;;;;;;;21.14;66.66;100691.44;5089695;28;20040;-81
2021/08/25 10:25:26;;;;;;;6.75;2.17;;;;;;;21.19;66.45;100685.66;5091999;28;20020;-82
2021/08/25 10:28:05;;;;;;;12.18;2.95;;;;;;;21.25;65.80;100695.38;5086936;28;20020;-81
2021/08/25 10:30:52;;;;;;;8.95;2.17;;;;;;;21.32;65.82;100682.88;5073819;28;20024;-82
2021/08/25 10:33:19;;;;;;;7.38;2.72;;;;;;;21.36;65.72;100679.06;5080387;28;20040;-82
2021/08/25 10:35:44;;;;;;;9.40;2.25;;;;;;;21.46;65.43;100681.34;5083883;28;20042;-81
2021/08/25 10:38:22;;;;;;;9.55;2.60;;;;;;;21.50;65.52;100685.06;5080216;28;20053;-82
2021/08/25 10:40:48;;;;;;;14.02;3.00;;;;;;;21.50;65.06;100678.72;5085448;28;20060;-83
2021/08/25 10:43:35;;;;;;;8.43;2.83;;;;;;;21.48;64.97;100684.59;5090316;28;20510;-81
2021/08/25 10:46:01;;;;;;;7.03;2.28;;;;;;;21.54;64.71;100679.63;5081552;28;20039;-82
2021/08/25 10:48:55;;;;;;;8.93;2.50;;;;;;;21.54;64.92;100671.28;5087026;28;20020;-82
2021/08/25 10:51:30;;;;;;;13.45;3.05;;;;;;;21.68;64.96;100666.16;5091554;28;20020;-81
2021/08/25 10:53:57;;;;;;;9.30;2.83;;;;;;;21.80;64.46;100661.72;5084977;28;20024;-82
2021/08/25 10:56:30;;;;;;;9.63;2.65;;;;;;;21.83;64.28;100663.81;5079302;28;20111;-81
2021/08/25 10:59:03;;;;;;;8.60;2.85;;;;;;;21.90;64.01;100667.56;5076780;28;20115;-80
2021/08/25 11:01:34;;;;;;;9.25;2.65;;;;;;;21.94;63.87;100679.59;5087033;28;20070;-80
2021/08/25 11:04:04;;;;;;;7.10;2.30;;;;;;;21.97;63.51;100666.97;5091420;28;20099;-82
2021/08/25 11:06:34;;;;;;;7.97;3.13;;;;;;;22.00;63.09;100660.72;5069052;28;20389;-82
2021/08/25 11:09:13;;;;;;;8.13;2.28;;;;;;;22.02;63.07;100652.84;5089551;28;20043;-82
2021/08/25 11:11:39;;;;;;;7.90;2.28;;;;;;;22.10;62.72;100648.31;5085469;28;20020;-82
2021/08/25 11:14:04;;;;;;;7.57;2.70;;;;;;;22.23;62.72;100668.50;5090048;28;20746;-83